createdAt,value
2022-11-14T00:00:46.845Z,8.3
2022-11-14T00:01:46.864Z,8.3
2022-11-14T00:02:51.934Z,8.2
2022-11-14T00:03:46.908Z,8.2
2022-11-14T00:04:46.972Z,8.2
2022-11-14T00:05:47.020Z,8.2
2022-11-14T00:06:47.105Z,8.1
2022-11-14T00:07:47.142Z,8.2
2022-11-14T00:08:47.274Z,8.1
2022-11-14T00:09:47.323Z,8
2022-11-14T00:10:47.213Z,8.2
2022-11-14T00:11:47.232Z,8.3
2022-11-14T00:12:47.260Z,8.2
2022-11-14T00:13:47.303Z,8.2
2022-11-14T00:14:47.361Z,8.2
2022-11-14T00:15:47.405Z,8.2
2022-11-14T00:16:47.441Z,8.2
2022-11-14T00:17:47.526Z,8.1
2022-11-14T00:18:47.621Z,8
2022-11-14T00:19:47.692Z,7.9
2022-11-14T00:20:47.765Z,7.7
2022-11-14T00:21:48.905Z,7.7
2022-11-14T00:22:48.469Z,7.7
2022-11-14T00:23:48.019Z,7.8
2022-11-14T00:24:48.468Z,7.8
2022-11-14T00:25:48.196Z,7.7
2022-11-14T00:26:49.318Z,7.6
2022-11-14T00:27:48.339Z,7.7
2022-11-14T00:28:48.413Z,7.7
2022-11-14T00:29:53.770Z,7.8
2022-11-14T00:30:48.665Z,7.8
2022-11-14T00:31:48.711Z,7.7
2022-11-14T00:32:48.682Z,7.8
2022-11-14T00:33:48.743Z,8
2022-11-14T00:34:48.817Z,7.7
2022-11-14T00:35:49.042Z,7.8
2022-11-14T00:36:48.864Z,8
2022-11-14T00:37:48.884Z,7.9
2022-11-14T00:38:48.903Z,7.8
2022-11-14T00:39:48.939Z,7.8
2022-11-14T00:40:49.341Z,7.8
2022-11-14T00:41:51.043Z,7.9
2022-11-14T00:42:49.039Z,7.8
2022-11-14T00:43:49.089Z,7.8
2022-11-14T00:44:49.170Z,7.8
2022-11-14T00:45:49.140Z,7.8
2022-11-14T00:46:49.413Z,7.9
2022-11-14T00:47:49.214Z,8
2022-11-14T00:48:49.263Z,8
2022-11-14T00:49:49.319Z,7.9
2022-11-14T00:50:49.331Z,7.9
2022-11-14T00:51:49.320Z,7.9
2022-11-14T00:52:49.345Z,7.9
2022-11-14T00:53:49.410Z,7.9
2022-11-14T00:54:49.445Z,7.9
2022-11-14T00:55:49.499Z,8
2022-11-14T00:56:49.654Z,7.7
2022-11-14T00:57:49.562Z,7.7
2022-11-14T00:58:49.581Z,7.8
2022-11-14T00:59:49.652Z,7.7
2022-11-14T01:00:49.745Z,7.5
2022-11-14T01:01:52.005Z,7.7
2022-11-14T01:02:49.769Z,7.7
2022-11-14T01:03:49.773Z,7.5
2022-11-14T01:04:49.830Z,7.6
2022-11-14T01:05:49.868Z,7.5
2022-11-14T01:06:49.887Z,7.6
2022-11-14T01:07:49.916Z,7.6
2022-11-14T01:08:49.979Z,7.6
2022-11-14T01:09:49.980Z,7.6
2022-11-14T01:10:50.023Z,7.6
2022-11-14T01:11:50.058Z,7.7
2022-11-14T01:12:50.219Z,7.7
2022-11-14T01:13:50.116Z,7.5
2022-11-14T01:14:50.157Z,7.6
2022-11-14T01:15:50.438Z,7.6
2022-11-14T01:16:50.231Z,7.5
2022-11-14T01:17:50.253Z,7.6
2022-11-14T01:18:50.355Z,7.8
2022-11-14T01:19:55.836Z,7.9
2022-11-14T01:20:50.373Z,7.7
2022-11-14T01:21:50.507Z,7.6
2022-11-14T01:22:50.426Z,7.6
2022-11-14T01:23:55.475Z,7.7
2022-11-14T01:24:50.495Z,7.9
2022-11-14T01:25:50.532Z,7.9
2022-11-14T01:26:50.588Z,7.7
2022-11-14T01:27:50.618Z,7.7
2022-11-14T01:28:50.804Z,7.8
2022-11-14T01:29:50.783Z,7.8
2022-11-14T01:30:50.839Z,8
2022-11-14T01:31:50.894Z,8.1
2022-11-14T01:32:50.950Z,8.1
2022-11-14T01:33:50.993Z,8.2
2022-11-14T01:34:51.093Z,8.2
2022-11-14T01:35:51.174Z,8.2
2022-11-14T01:36:51.212Z,8.3
2022-11-14T01:37:51.521Z,8.3
2022-11-14T01:38:51.283Z,8.4
2022-11-14T01:39:52.843Z,8.3
2022-11-14T01:40:51.362Z,8.3
2022-11-14T01:41:51.376Z,8.3
2022-11-14T01:42:51.399Z,8.3
2022-11-14T01:43:51.459Z,8.2
2022-11-14T01:44:51.626Z,8.1
2022-11-14T01:45:51.563Z,8.1
2022-11-14T01:46:51.841Z,8.1
2022-11-14T01:47:51.579Z,8
2022-11-14T01:48:54.559Z,7.9
2022-11-14T01:49:51.678Z,7.9
2022-11-14T01:50:51.733Z,8
2022-11-14T01:51:51.725Z,8
2022-11-14T01:52:51.755Z,8
2022-11-14T01:53:51.777Z,8
2022-11-14T01:54:51.854Z,7.8
2022-11-14T01:55:51.894Z,7.8
2022-11-14T01:56:57.161Z,7.8
2022-11-14T01:57:51.959Z,7.8
2022-11-14T01:58:51.995Z,7.8
2022-11-14T01:59:52.025Z,7.8
2022-11-14T02:00:52.175Z,7.7
2022-11-14T02:01:52.150Z,7.7
2022-11-14T02:02:52.141Z,7.7
2022-11-14T02:03:52.147Z,7.7
2022-11-14T02:04:52.197Z,7.6
2022-11-14T02:05:52.236Z,7.6
2022-11-14T02:06:52.295Z,7.5
2022-11-14T02:07:52.272Z,7.5
2022-11-14T02:08:52.352Z,7.5
2022-11-14T02:09:52.387Z,7.5
2022-11-14T02:10:52.411Z,7.5
2022-11-14T02:11:52.404Z,7.6
2022-11-14T02:12:52.427Z,7.6
2022-11-14T02:13:52.512Z,7.5
2022-11-14T02:14:52.551Z,7.5
2022-11-14T02:15:52.561Z,7.6
2022-11-14T02:17:14.640Z,7.6
2022-11-14T02:17:52.638Z,7.5
2022-11-14T02:18:52.694Z,7.5
2022-11-14T02:19:52.703Z,7.5
2022-11-14T02:20:52.777Z,7.5
2022-11-14T02:21:52.772Z,7.6
2022-11-14T02:22:52.831Z,7.5
2022-11-14T02:23:52.845Z,7.5
2022-11-14T02:24:52.874Z,7.5
2022-11-14T02:25:52.919Z,7.5
2022-11-14T02:26:52.949Z,7.5
2022-11-14T02:27:52.979Z,7.3
2022-11-14T02:28:52.992Z,7
2022-11-14T02:29:53.061Z,6.9
2022-11-14T02:30:53.112Z,7.2
2022-11-14T02:31:58.217Z,7.3
2022-11-14T02:33:12.119Z,7.4
2022-11-14T02:33:53.229Z,7.4
2022-11-14T02:34:53.227Z,7.3
2022-11-14T02:35:53.323Z,7.3
2022-11-14T02:36:53.278Z,7.3
2022-11-14T02:37:53.333Z,7.4
2022-11-14T02:38:53.358Z,7.4
2022-11-14T02:39:53.415Z,7.3
2022-11-14T02:40:53.482Z,7.2
2022-11-14T02:41:53.546Z,6.9
2022-11-14T02:42:53.629Z,6.9
2022-11-14T02:43:53.649Z,6.9
2022-11-14T02:44:53.707Z,6.9
2022-11-14T02:45:53.752Z,6.8
2022-11-14T02:46:53.801Z,6.7
2022-11-14T02:47:53.978Z,6.8
2022-11-14T02:48:53.908Z,6.9
2022-11-14T02:49:58.967Z,7
2022-11-14T02:50:53.977Z,7
2022-11-14T02:51:54.014Z,7.1
2022-11-14T02:52:54.052Z,7.1
2022-11-14T02:53:54.071Z,7.1
2022-11-14T02:54:54.705Z,7
2022-11-14T02:55:54.184Z,7
2022-11-14T02:56:54.199Z,6.8
2022-11-14T02:57:54.246Z,6.7
2022-11-14T02:58:54.290Z,6.7
2022-11-14T02:59:54.313Z,6.8
2022-11-14T03:01:18.946Z,6.7
2022-11-14T03:01:54.521Z,6.5
2022-11-14T03:02:54.462Z,6.7
2022-11-14T03:03:59.764Z,6.9
2022-11-14T03:04:54.485Z,6.8
2022-11-14T03:05:54.543Z,6.8
2022-11-14T03:06:54.643Z,6.8
2022-11-14T03:07:54.587Z,6.8
2022-11-14T03:09:04.605Z,6.7
2022-11-14T03:09:54.639Z,6.7
2022-11-14T03:10:54.691Z,6.8
2022-11-14T03:11:54.684Z,6.8
2022-11-14T03:12:54.719Z,6.7
2022-11-14T03:13:54.743Z,6.6
2022-11-14T03:14:54.809Z,6.7
2022-11-14T03:15:54.838Z,6.8
2022-11-14T03:16:57.036Z,6.7
2022-11-14T03:17:54.912Z,6.6
2022-11-14T03:18:54.906Z,6.5
2022-11-14T03:19:55.057Z,6.5
2022-11-14T03:20:55.005Z,6.6
2022-11-14T03:21:55.025Z,6.5
2022-11-14T03:22:55.016Z,6.5
2022-11-14T03:23:55.050Z,6.5
2022-11-14T03:24:55.111Z,6.5
2022-11-14T03:25:55.187Z,6.5
2022-11-14T03:26:55.191Z,6.4
2022-11-14T03:27:55.200Z,6.4
2022-11-14T03:28:55.199Z,6.4
2022-11-14T03:29:55.243Z,6.4
2022-11-14T03:30:55.327Z,6.2
2022-11-14T03:31:55.311Z,6.1
2022-11-14T03:32:55.322Z,6.1
2022-11-14T03:34:49.061Z,6.2
2022-11-14T03:35:10.304Z,6.1
2022-11-14T03:35:56.449Z,6
2022-11-14T03:36:55.521Z,5.9
2022-11-14T03:37:56.695Z,5.9
2022-11-14T03:38:55.547Z,6.1
2022-11-14T03:39:55.602Z,6.2
2022-11-14T03:40:55.578Z,6.2
2022-11-14T03:41:55.587Z,6
2022-11-14T03:42:55.655Z,6
2022-11-14T03:43:55.680Z,6
2022-11-14T03:44:55.701Z,5.9
2022-11-14T03:45:55.753Z,5.9
2022-11-14T03:46:55.789Z,6
2022-11-14T03:47:55.799Z,6
2022-11-14T03:48:55.834Z,6.1
2022-11-14T03:49:55.894Z,6
2022-11-14T03:50:56.012Z,6
2022-11-14T03:51:55.963Z,6
2022-11-14T03:52:56.054Z,5.9
2022-11-14T03:53:56.128Z,6
2022-11-14T03:54:56.166Z,5.9
2022-11-14T03:55:56.288Z,5.9
2022-11-14T03:56:56.321Z,5.9
2022-11-14T03:57:56.411Z,5.8
2022-11-14T03:58:56.466Z,5.9
2022-11-14T03:59:56.739Z,5.9
2022-11-14T04:00:57.670Z,5.8
2022-11-14T04:01:56.548Z,5.8
2022-11-14T04:02:56.572Z,5.5
2022-11-14T04:03:56.628Z,5.5
2022-11-14T04:04:56.647Z,5.4
2022-11-14T04:05:57.158Z,5.5
2022-11-14T04:06:56.886Z,5.7
2022-11-14T04:07:56.747Z,5.6
2022-11-14T04:08:56.780Z,5.1
2022-11-14T04:09:56.830Z,5.3
2022-11-14T04:10:56.873Z,5.3
2022-11-14T04:12:01.857Z,5.4
2022-11-14T04:12:56.915Z,5.6
2022-11-14T04:13:56.955Z,5.7
2022-11-14T04:14:57.224Z,5.6
2022-11-14T04:15:57.011Z,5.5
2022-11-14T04:16:57.035Z,5.6
2022-11-14T04:17:57.073Z,5.7
2022-11-14T04:18:57.117Z,5.7
2022-11-14T04:19:57.099Z,5.8
2022-11-14T04:20:57.438Z,5.9
2022-11-14T04:21:57.169Z,5.8
2022-11-14T04:22:57.378Z,5.7
2022-11-14T04:23:57.264Z,5.8
2022-11-14T04:24:57.291Z,5.8
2022-11-14T04:25:57.325Z,5.9
2022-11-14T04:26:57.341Z,5.8
2022-11-14T04:27:57.368Z,5.7
2022-11-14T04:28:57.407Z,5.8
2022-11-14T04:29:57.398Z,5.8
2022-11-14T04:31:26.853Z,5.8
2022-11-14T04:31:57.520Z,5.8
2022-11-14T04:32:57.546Z,5.9
2022-11-14T04:33:57.573Z,5.8
2022-11-14T04:34:57.630Z,5.8
2022-11-14T04:35:57.664Z,5.8
2022-11-14T04:36:57.683Z,5.7
2022-11-14T04:37:57.723Z,5.8
2022-11-14T04:38:57.896Z,5.8
2022-11-14T04:39:57.862Z,5.6
2022-11-14T04:40:57.918Z,5.4
2022-11-14T04:41:58.057Z,5.5
2022-11-14T04:42:58.113Z,5.6
2022-11-14T04:43:58.245Z,5.6
2022-11-14T04:44:58.256Z,5.7
2022-11-14T04:45:58.343Z,5.7
2022-11-14T04:46:58.410Z,5.6
2022-11-14T04:47:58.458Z,5.6
2022-11-14T04:48:58.524Z,5.6
2022-11-14T04:49:58.564Z,5.5
2022-11-14T04:50:58.675Z,5.3
2022-11-14T04:51:58.636Z,5.3
2022-11-14T04:52:58.658Z,5.3
2022-11-14T04:53:58.680Z,5.2
2022-11-14T04:54:58.880Z,5.3
2022-11-14T04:55:58.711Z,5.2
2022-11-14T04:56:58.781Z,5.2
2022-11-14T04:57:58.787Z,5.2
2022-11-14T04:58:58.840Z,5.4
2022-11-14T04:59:58.844Z,5.4
2022-11-14T05:00:58.944Z,5.2
2022-11-14T05:01:58.946Z,5.1
2022-11-14T05:02:58.999Z,5.2
2022-11-14T05:03:59.034Z,5.1
2022-11-14T05:04:59.082Z,5.1
2022-11-14T05:06:04.185Z,5.1
2022-11-14T05:06:59.363Z,5.3
2022-11-14T05:07:59.313Z,5.2
2022-11-14T05:08:59.362Z,5.4
2022-11-14T05:09:59.375Z,5.2
2022-11-14T05:10:59.486Z,5.2
2022-11-14T05:11:59.948Z,5.2
2022-11-14T05:13:00.085Z,5.2
2022-11-14T05:13:59.583Z,5.1
2022-11-14T05:14:59.602Z,5.2
2022-11-14T05:15:59.620Z,5.1
2022-11-14T05:16:59.672Z,5
2022-11-14T05:17:59.693Z,5.1
2022-11-14T05:18:59.726Z,5.1
2022-11-14T05:19:59.786Z,5.1
2022-11-14T05:20:59.804Z,5.2
2022-11-14T05:21:59.860Z,5
2022-11-14T05:22:59.883Z,5
2022-11-14T05:23:59.898Z,5
2022-11-14T05:24:59.903Z,5.1
2022-11-14T05:25:59.965Z,5
2022-11-14T05:27:00.095Z,5.1
2022-11-14T05:28:00.115Z,5
2022-11-14T05:29:00.057Z,5.1
2022-11-14T05:30:00.102Z,5.2
2022-11-14T05:31:00.112Z,5.2
2022-11-14T05:32:00.161Z,5.1
2022-11-14T05:33:00.193Z,4.9
2022-11-14T05:34:00.276Z,4.9
2022-11-14T05:35:00.230Z,5.1
2022-11-14T05:36:00.253Z,5
2022-11-14T05:37:03.587Z,4.9
2022-11-14T05:38:00.881Z,5
2022-11-14T05:39:05.385Z,5.1
2022-11-14T05:40:01.542Z,5.1
2022-11-14T05:41:00.772Z,4.9
2022-11-14T05:42:13.466Z,5
2022-11-14T05:43:00.474Z,5
2022-11-14T05:44:00.501Z,5.1
2022-11-14T05:45:00.567Z,5.2
2022-11-14T05:46:00.548Z,5.3
2022-11-14T05:47:00.628Z,5.2
2022-11-14T05:48:00.656Z,5.2
2022-11-14T05:49:00.688Z,5.2
2022-11-14T05:50:00.699Z,5.3
2022-11-14T05:51:00.732Z,5.4
2022-11-14T05:52:00.794Z,5.3
2022-11-14T05:53:00.844Z,5.2
2022-11-14T05:54:00.893Z,5.2
2022-11-14T05:55:00.917Z,5.2
2022-11-14T05:56:00.942Z,5.1
2022-11-14T05:57:00.962Z,5.1
2022-11-14T05:58:01.043Z,5.2
2022-11-14T05:59:01.089Z,5.1
2022-11-14T06:00:01.086Z,5.1
2022-11-14T06:01:01.145Z,5
2022-11-14T06:02:01.273Z,5.1
2022-11-14T06:03:01.181Z,5
2022-11-14T06:04:01.251Z,5
2022-11-14T06:05:01.233Z,5.1
2022-11-14T06:06:01.277Z,5.1
2022-11-14T06:07:01.365Z,5.1
2022-11-14T06:08:01.385Z,5
2022-11-14T06:09:01.393Z,5
2022-11-14T06:10:06.463Z,4.8
2022-11-14T06:11:01.446Z,4.9
2022-11-14T06:12:01.480Z,5
2022-11-14T06:13:01.695Z,5
2022-11-14T06:14:01.598Z,4.9
2022-11-14T06:15:01.693Z,4.9
2022-11-14T06:16:01.726Z,4.9
2022-11-14T06:17:06.775Z,4.7
2022-11-14T06:18:01.848Z,4.7
2022-11-14T06:19:01.902Z,4.7
2022-11-14T06:20:07.038Z,4.7
2022-11-14T06:21:02.014Z,4.8
2022-11-14T06:22:02.144Z,4.8
2022-11-14T06:23:02.178Z,4.9
2022-11-14T06:24:02.298Z,5
2022-11-14T06:25:02.227Z,5
2022-11-14T06:26:02.550Z,5
2022-11-14T06:27:02.330Z,5
2022-11-14T06:28:02.403Z,5.1
2022-11-14T06:29:02.452Z,5
2022-11-14T06:30:03.153Z,4.9
2022-11-14T06:31:02.624Z,4.9
2022-11-14T06:32:04.599Z,4.9
2022-11-14T06:33:07.580Z,4.9
2022-11-14T06:34:02.662Z,5
2022-11-14T06:35:02.657Z,4.9
2022-11-14T06:36:02.723Z,5.1
2022-11-14T06:37:02.740Z,5.1
2022-11-14T06:38:02.796Z,5.1
2022-11-14T06:39:03.068Z,5.2
2022-11-14T06:40:02.824Z,5.2
2022-11-14T06:41:02.897Z,5.3
2022-11-14T06:42:02.938Z,5.3
2022-11-14T06:43:03.030Z,5.3
2022-11-14T06:44:03.010Z,5.3
2022-11-14T06:45:03.303Z,5.3
2022-11-14T06:46:08.097Z,5.4
2022-11-14T06:47:04.115Z,5.4
2022-11-14T06:48:03.690Z,5.4
2022-11-14T06:49:03.198Z,5.5
2022-11-14T06:50:03.282Z,5.5
2022-11-14T06:51:03.212Z,5.4
2022-11-14T06:52:03.257Z,5.4
2022-11-14T06:53:05.528Z,5.3
2022-11-14T06:54:19.414Z,5.4
2022-11-14T06:55:03.410Z,5.5
2022-11-14T06:56:03.354Z,5.5
2022-11-14T06:57:04.731Z,5.4
2022-11-14T06:58:03.570Z,5.4
2022-11-14T06:59:08.491Z,5.4
2022-11-14T07:00:03.876Z,5.4
2022-11-14T07:01:03.653Z,5.5
2022-11-14T07:02:05.516Z,5.5
2022-11-14T07:03:05.089Z,5.6
2022-11-14T07:04:03.936Z,5.6
2022-11-14T07:05:03.708Z,5.6
2022-11-14T07:06:05.256Z,5.5
2022-11-14T07:07:04.272Z,5.5
2022-11-14T07:08:09.112Z,5.5
2022-11-14T07:09:09.103Z,5.6
2022-11-14T07:10:04.061Z,5.6
2022-11-14T07:11:05.353Z,5.5
2022-11-14T07:12:12.745Z,5.5
2022-11-14T07:13:03.976Z,5.6
2022-11-14T07:14:04.048Z,5.7
2022-11-14T07:15:09.248Z,5.7
2022-11-14T07:16:04.098Z,5.7
2022-11-14T07:17:04.347Z,5.7
2022-11-14T07:18:05.477Z,5.7
2022-11-14T07:19:04.346Z,5.7
2022-11-14T07:20:04.259Z,5.7
2022-11-14T07:21:04.303Z,5.7
2022-11-14T07:22:04.568Z,5.7
2022-11-14T07:23:14.753Z,5.7
2022-11-14T07:24:04.474Z,5.6
2022-11-14T07:25:04.689Z,5.7
2022-11-14T07:26:09.648Z,5.7
2022-11-14T07:27:10.961Z,5.7
2022-11-14T07:28:19.675Z,5.7
2022-11-14T07:29:04.907Z,5.7
2022-11-14T07:30:10.126Z,5.9
2022-11-14T07:31:12.546Z,5.9
2022-11-14T07:32:23.069Z,5.8
2022-11-14T07:33:10.287Z,5.8
2022-11-14T07:34:05.673Z,5.9
2022-11-14T07:35:05.253Z,5.8
2022-11-14T07:36:04.987Z,5.8
2022-11-14T07:37:05.094Z,5.9
2022-11-14T07:38:10.749Z,5.9
2022-11-14T07:39:08.342Z,5.8
2022-11-14T07:40:05.493Z,5.7
2022-11-14T07:41:10.242Z,5.8
2022-11-14T07:42:05.228Z,5.7
2022-11-14T07:43:06.390Z,5.7
2022-11-14T07:44:11.413Z,5.7
2022-11-14T07:45:11.875Z,5.8
2022-11-14T07:46:05.674Z,5.8
2022-11-14T07:47:05.406Z,5.7
2022-11-14T07:48:10.447Z,5.8
2022-11-14T07:49:10.719Z,5.7
2022-11-14T07:50:06.689Z,5.8
2022-11-14T07:51:05.625Z,5.8
2022-11-14T07:52:11.129Z,5.8
2022-11-14T07:53:05.696Z,5.9
2022-11-14T07:54:11.514Z,5.8
2022-11-14T07:55:05.844Z,5.8
2022-11-14T07:56:05.975Z,5.8
2022-11-14T07:57:05.992Z,5.7
2022-11-14T07:58:06.067Z,5.7
2022-11-14T07:59:05.856Z,5.6
2022-11-14T08:00:10.846Z,5.7
2022-11-14T08:01:06.006Z,5.8
2022-11-14T08:02:06.295Z,5.7
2022-11-14T08:03:06.010Z,5.6
2022-11-14T08:04:06.009Z,5.7
2022-11-14T08:05:06.163Z,5.7
2022-11-14T08:06:06.148Z,5.6
2022-11-14T08:07:06.732Z,5.7
2022-11-14T08:08:06.300Z,5.7
2022-11-14T08:09:06.165Z,5.7
2022-11-14T08:10:06.845Z,5.7
2022-11-14T08:11:06.289Z,5.8
2022-11-14T08:12:09.801Z,5.8
2022-11-14T08:13:32.514Z,5.8
2022-11-14T08:14:06.410Z,5.8
2022-11-14T08:15:06.469Z,5.8
2022-11-14T08:16:12.197Z,5.8
2022-11-14T08:17:06.498Z,5.7
2022-11-14T08:18:06.541Z,5.7
2022-11-14T08:19:06.573Z,5.8
2022-11-14T08:20:06.913Z,5.8
2022-11-14T08:21:06.674Z,5.8
2022-11-14T08:22:06.698Z,5.9
2022-11-14T08:23:06.699Z,5.9
2022-11-14T08:24:06.726Z,5.8
2022-11-14T08:25:11.789Z,5.8
2022-11-14T08:26:11.997Z,5.8
2022-11-14T08:27:07.000Z,5.8
2022-11-14T08:28:07.438Z,5.9
2022-11-14T08:29:06.901Z,5.9
2022-11-14T08:30:06.973Z,5.9
2022-11-14T08:31:07.003Z,5.8
2022-11-14T08:32:10.392Z,5.8
2022-11-14T08:33:07.111Z,5.8
2022-11-14T08:34:07.120Z,5.8
2022-11-14T08:35:07.141Z,5.7
2022-11-14T08:36:07.191Z,5.8
2022-11-14T08:37:07.239Z,5.8
2022-11-14T08:38:15.321Z,5.8
2022-11-14T08:39:07.362Z,5.9
2022-11-14T08:40:07.474Z,5.8
2022-11-14T08:41:07.537Z,5.8
2022-11-14T08:42:07.804Z,5.8
2022-11-14T08:43:07.624Z,5.8
2022-11-14T08:44:07.704Z,5.8
2022-11-14T08:45:08.019Z,5.8
2022-11-14T08:47:11.670Z,5.8
2022-11-14T08:49:44.154Z,5.9
2022-11-14T08:52:52.462Z,5.8
2022-11-14T08:55:41.389Z,5.9
2022-11-14T08:56:22.448Z,6
2022-11-14T08:57:08.323Z,6
2022-11-14T08:58:08.421Z,6
2022-11-14T08:59:08.429Z,6
2022-11-14T09:00:08.522Z,6
2022-11-14T09:01:08.903Z,5.9
2022-11-14T09:02:09.132Z,5.9
2022-11-14T09:03:08.976Z,5.9
2022-11-14T09:04:08.824Z,6
2022-11-14T09:05:08.813Z,6
2022-11-14T09:06:08.790Z,6
2022-11-14T09:07:08.913Z,6
2022-11-14T09:08:09.327Z,6
2022-11-14T09:09:08.908Z,6
2022-11-14T09:10:09.225Z,5.9
2022-11-14T09:11:10.174Z,6
2022-11-14T09:12:09.220Z,6
2022-11-14T09:13:09.450Z,5.9
2022-11-14T09:14:09.271Z,5.9
2022-11-14T09:15:09.178Z,5.9
2022-11-14T09:16:09.145Z,6
2022-11-14T09:17:09.123Z,6
2022-11-14T09:18:09.191Z,6.1
2022-11-14T09:19:09.233Z,6.1
2022-11-14T09:20:09.221Z,6.2
2022-11-14T09:21:09.265Z,6.2
2022-11-14T09:22:09.298Z,6.2
2022-11-14T09:23:09.581Z,6.1
2022-11-14T09:24:09.416Z,6.1
2022-11-14T09:25:14.704Z,6.1
2022-11-14T09:26:09.464Z,6.2
2022-11-14T09:27:09.479Z,6.3
2022-11-14T09:28:09.557Z,6.4
2022-11-14T09:29:09.577Z,6.4
2022-11-14T09:30:09.587Z,6.4
2022-11-14T09:31:09.636Z,6.4
2022-11-14T09:32:09.701Z,6.4
2022-11-14T09:33:11.798Z,6.4
2022-11-14T09:34:09.778Z,6.4
2022-11-14T09:35:09.758Z,6.4
2022-11-14T09:36:09.804Z,6.4
2022-11-14T09:37:09.829Z,6.5
2022-11-14T09:38:09.897Z,6.5
2022-11-14T09:39:09.907Z,6.5
2022-11-14T09:40:09.999Z,6.3
2022-11-14T09:41:10.014Z,6.3
2022-11-14T09:42:14.381Z,6.4
2022-11-14T09:43:10.116Z,6.5
2022-11-14T09:44:10.150Z,6.4
2022-11-14T09:45:10.153Z,6.5
2022-11-14T09:46:10.199Z,6.5
2022-11-14T09:47:10.235Z,6.5
2022-11-14T09:48:10.241Z,6.6
2022-11-14T09:49:10.290Z,6.6
2022-11-14T09:50:10.401Z,6.5
2022-11-14T09:51:10.744Z,6.6
2022-11-14T09:52:10.484Z,6.5
2022-11-14T09:53:10.574Z,6.5
2022-11-14T09:54:10.622Z,6.5
2022-11-14T09:55:10.728Z,6.5
2022-11-14T09:56:10.813Z,6.6
2022-11-14T09:57:10.786Z,6.5
2022-11-14T09:58:10.906Z,6.5
2022-11-14T09:59:10.907Z,6.5
2022-11-14T10:00:10.892Z,6.5
2022-11-14T10:01:10.937Z,6.5
2022-11-14T10:02:11.196Z,6.5
2022-11-14T10:03:11.046Z,6.5
2022-11-14T10:04:11.041Z,6.5
2022-11-14T10:05:11.077Z,6.5
2022-11-14T10:06:11.096Z,6.5
2022-11-14T10:07:11.186Z,6.6
2022-11-14T10:08:11.194Z,6.5
2022-11-14T10:09:11.280Z,6.4
2022-11-14T10:10:11.265Z,6.5
2022-11-14T10:11:11.302Z,6.5
2022-11-14T10:12:11.347Z,6.6
2022-11-14T10:13:11.394Z,6.5
2022-11-14T10:14:11.379Z,6.6
2022-11-14T10:15:11.407Z,6.6
2022-11-14T10:16:11.433Z,6.6
2022-11-14T10:17:11.484Z,6.6
2022-11-14T10:18:11.543Z,6.6
2022-11-14T10:19:11.512Z,6.6
2022-11-14T10:20:11.564Z,6.6
2022-11-14T10:21:11.545Z,6.5
2022-11-14T10:22:11.688Z,6.5
2022-11-14T10:23:11.768Z,6.6
2022-11-14T10:24:11.751Z,6.6
2022-11-14T10:25:11.841Z,6.6
2022-11-14T10:26:11.928Z,6.6
2022-11-14T10:27:11.978Z,6.7
2022-11-14T10:28:12.055Z,6.7
2022-11-14T10:29:11.989Z,6.7
2022-11-14T10:30:12.014Z,6.8
2022-11-14T10:31:12.021Z,6.8
2022-11-14T10:32:12.070Z,6.7
2022-11-14T10:33:12.107Z,6.7
2022-11-14T10:34:12.154Z,6.8
2022-11-14T10:35:12.161Z,6.7
2022-11-14T10:36:12.236Z,6.8
2022-11-14T10:37:12.233Z,6.7
2022-11-14T10:38:12.292Z,6.7
2022-11-14T10:39:12.345Z,6.7
2022-11-14T10:40:12.311Z,6.7
2022-11-14T10:41:23.410Z,6.8
2022-11-14T10:42:12.423Z,6.8
2022-11-14T10:43:12.456Z,6.8
2022-11-14T10:44:12.526Z,6.8
2022-11-14T10:45:12.530Z,6.8
2022-11-14T10:46:12.558Z,6.7
2022-11-14T10:47:12.589Z,6.7
2022-11-14T10:48:12.656Z,6.7
2022-11-14T10:49:12.610Z,6.6
2022-11-14T10:50:12.661Z,6.7
2022-11-14T10:51:12.677Z,6.7
2022-11-14T10:52:12.755Z,6.7
2022-11-14T10:53:12.810Z,6.7
2022-11-14T10:54:12.790Z,6.7
2022-11-14T10:55:12.817Z,6.8
2022-11-14T10:56:12.960Z,6.8
2022-11-14T10:57:12.916Z,6.8
2022-11-14T10:58:12.980Z,6.8
2022-11-14T10:59:12.950Z,6.8
2022-11-14T11:00:13.036Z,6.8
2022-11-14T11:01:13.162Z,6.8
2022-11-14T11:02:13.134Z,6.7
2022-11-14T11:03:13.257Z,6.8
2022-11-14T11:04:13.410Z,6.8
2022-11-14T11:05:13.276Z,6.7
2022-11-14T11:06:13.362Z,6.7
2022-11-14T11:07:13.502Z,6.8
2022-11-14T11:08:36.489Z,6.9
2022-11-14T11:09:13.639Z,6.9
2022-11-14T11:10:13.560Z,6.9
2022-11-14T11:11:13.627Z,6.9
2022-11-14T11:12:13.735Z,6.9
2022-11-14T11:13:13.913Z,6.9
2022-11-14T11:14:19.944Z,6.8
2022-11-14T11:15:22.653Z,6.8
2022-11-14T11:16:13.739Z,6.9
2022-11-14T11:17:13.795Z,6.9
2022-11-14T11:18:13.846Z,6.9
2022-11-14T11:19:13.868Z,6.9
2022-11-14T11:20:13.908Z,7.1
2022-11-14T11:21:13.963Z,7
2022-11-14T11:22:13.990Z,7.1
2022-11-14T11:23:13.992Z,7.2
2022-11-14T11:24:13.999Z,7.1
2022-11-14T11:25:55.622Z,7.1
2022-11-14T11:26:14.129Z,7.1
2022-11-14T11:33:14.420Z,7.2
2022-11-14T11:34:14.364Z,7.2
2022-11-14T11:35:14.426Z,7.2
2022-11-14T11:36:14.464Z,7.3
2022-11-14T11:37:14.558Z,7.3
2022-11-14T11:38:16.817Z,7.3
2022-11-14T11:42:24.795Z,7.4
2022-11-14T11:43:38.211Z,7.4
2022-11-14T11:44:24.844Z,7.4
2022-11-14T11:45:30.799Z,7.3
2022-11-14T11:46:24.932Z,7.3
2022-11-14T11:47:24.949Z,7.4
2022-11-14T11:48:25.067Z,7.4
2022-11-14T11:49:25.024Z,7.4
2022-11-14T11:50:25.063Z,7.4
2022-11-14T11:51:25.115Z,7.4
2022-11-14T11:52:25.160Z,7.3
2022-11-14T11:53:25.177Z,7.3
2022-11-14T11:54:25.209Z,7.3
2022-11-14T11:55:26.974Z,7.4
2022-11-14T11:56:25.319Z,7.4
2022-11-14T11:57:25.332Z,7.5
2022-11-14T11:58:25.370Z,7.4
2022-11-14T11:59:25.393Z,7.4
2022-11-14T12:00:25.540Z,7.3
2022-11-14T12:01:25.444Z,7.4
2022-11-14T12:02:25.704Z,7.5
2022-11-14T12:03:25.741Z,7.6
2022-11-14T12:04:25.600Z,7.6
2022-11-14T12:05:27.950Z,7.5
2022-11-14T12:06:25.632Z,7.4
2022-11-14T12:07:25.694Z,7.4
2022-11-14T12:08:25.703Z,7.5
2022-11-14T12:09:37.269Z,7.5
2022-11-14T12:10:25.758Z,7.4
2022-11-14T12:11:25.928Z,7.4
2022-11-14T12:12:25.879Z,7.3
2022-11-14T12:13:26.000Z,7.3
2022-11-14T12:14:26.017Z,7.3
2022-11-14T12:15:26.890Z,7.3
2022-11-14T12:16:26.161Z,7.4
2022-11-14T12:17:26.244Z,7.4
2022-11-14T12:18:26.278Z,7.4
2022-11-14T12:19:26.415Z,7.4
2022-11-14T12:20:26.383Z,7.4
2022-11-14T12:21:26.461Z,7.4
2022-11-14T12:22:26.516Z,7.4
2022-11-14T12:23:26.555Z,7.5
2022-11-14T12:24:26.614Z,7.6
2022-11-14T12:25:28.252Z,7.6
2022-11-14T12:26:26.706Z,7.5
2022-11-14T12:27:26.782Z,7.5
2022-11-14T12:28:26.813Z,7.5
2022-11-14T12:29:26.833Z,7.6
2022-11-14T12:30:26.926Z,7.6
2022-11-14T12:31:34.433Z,7.5
2022-11-14T12:32:26.978Z,7.6
2022-11-14T12:33:27.101Z,7.6
2022-11-14T12:34:27.153Z,7.5
2022-11-14T12:35:32.583Z,7.5
2022-11-14T12:36:27.122Z,7.4
2022-11-14T12:37:27.127Z,7.4
2022-11-14T12:38:27.140Z,7.4
2022-11-14T12:39:27.155Z,7.4
2022-11-14T12:40:27.433Z,7.4
2022-11-14T12:41:27.254Z,7.3
2022-11-14T12:43:57.704Z,7.3
2022-11-14T12:43:58.769Z,7.3
2022-11-14T12:44:27.596Z,7.3
2022-11-14T12:45:27.401Z,7.4
2022-11-14T12:46:27.447Z,7.4
2022-11-14T12:47:27.513Z,7.4
2022-11-14T12:48:27.496Z,7.4
2022-11-14T12:49:30.311Z,7.5
2022-11-14T12:50:27.614Z,7.5
2022-11-14T12:51:27.750Z,7.4
2022-11-14T12:52:27.660Z,7.4
2022-11-14T12:53:27.929Z,7.5
2022-11-14T12:54:27.700Z,7.5
2022-11-14T12:55:27.726Z,7.5
2022-11-14T12:56:27.787Z,7.4
2022-11-14T12:57:27.819Z,7.5
2022-11-14T12:58:27.836Z,7.5
2022-11-14T12:59:27.902Z,7.5
2022-11-14T13:00:27.912Z,7.5
2022-11-14T13:01:28.997Z,7.5
2022-11-14T13:02:27.997Z,7.5
2022-11-14T13:03:28.219Z,7.5
2022-11-14T13:04:28.068Z,7.5
2022-11-14T13:05:28.101Z,7.4
2022-11-14T13:06:28.162Z,7.4
2022-11-14T13:07:32.892Z,7.4
2022-11-14T13:08:28.153Z,7.5
2022-11-14T13:09:28.212Z,7.5
2022-11-14T13:10:28.204Z,7.5
2022-11-14T13:11:28.261Z,7.6
2022-11-14T13:12:28.334Z,7.6
2022-11-14T13:13:28.762Z,7.6
2022-11-14T13:14:28.375Z,7.5
2022-11-14T13:15:28.389Z,7.5
2022-11-14T13:16:28.412Z,7.5
2022-11-14T13:17:28.427Z,7.5
2022-11-14T13:18:28.488Z,7.5
2022-11-14T13:19:29.079Z,7.6
2022-11-14T13:20:28.553Z,7.6
2022-11-14T13:21:28.603Z,7.6
2022-11-14T13:22:28.592Z,7.6
2022-11-14T13:23:29.153Z,7.6
2022-11-14T13:24:28.696Z,7.6
2022-11-14T13:25:28.785Z,7.6
2022-11-14T13:26:28.907Z,7.6
2022-11-14T13:27:45.499Z,7.6
2022-11-14T13:28:28.949Z,7.6
2022-11-14T13:29:29.028Z,7.6
2022-11-14T13:30:29.133Z,7.6
2022-11-14T13:31:29.400Z,7.5
2022-11-14T13:32:29.266Z,7.5
2022-11-14T13:33:34.308Z,7.6
2022-11-14T13:34:29.387Z,7.6
2022-11-14T13:35:29.411Z,7.6
2022-11-14T13:36:29.456Z,7.6
2022-11-14T13:37:44.541Z,7.6
2022-11-14T13:38:29.572Z,7.6
2022-11-14T13:39:29.700Z,7.6
2022-11-14T13:40:29.713Z,7.6
2022-11-14T13:41:41.459Z,7.6
2022-11-14T13:42:29.826Z,7.6
2022-11-14T13:43:30.387Z,7.6
2022-11-14T13:44:40.100Z,7.6
2022-11-14T13:45:29.904Z,7.6
2022-11-14T13:46:29.927Z,7.6
2022-11-14T13:47:29.947Z,7.6
2022-11-14T13:48:29.977Z,7.6
2022-11-14T13:49:29.996Z,7.6
2022-11-14T13:50:30.062Z,7.6
2022-11-14T13:51:42.631Z,7.6
2022-11-14T13:52:30.139Z,7.6
2022-11-14T13:53:35.182Z,7.6
2022-11-14T13:54:30.179Z,7.6
2022-11-14T13:55:30.265Z,7.6
2022-11-14T13:56:30.251Z,7.6
2022-11-14T13:57:30.275Z,7.7
2022-11-14T13:58:30.319Z,7.7
2022-11-14T13:59:30.374Z,7.7
2022-11-14T14:00:30.501Z,7.6
2022-11-14T14:01:30.465Z,7.9
2022-11-14T14:02:30.489Z,7.8
2022-11-14T14:03:35.728Z,7.7
2022-11-14T14:04:30.526Z,7.6
2022-11-14T14:05:30.815Z,7.6
2022-11-14T14:06:30.607Z,7.6